KCRG/CRG METAR and TAF weather

Enter ICAO airport designator
Station Type Date Time Source
KCRG METAR 2021/03/06 04:53 UTC NOAA

KCRG 060453Z AUTO 05007KT 10SM CLR 14/11 A3007 RMK AO2 SLP181 T01440106 401890083


Station Type Date Time Source
KCRG Decoded METAR 2021/03/06 04:53 UTC NOAA

JACKSONVILLE CRAIG MUN, FL, United States (KCRG) 30-20N 81-31W 13M
Mar 05, 2021 - 11:53 PM EST / 2021.03.06 0453 UTC
Wind: from the NE (050 degrees) at 8 MPH (7 KT):0
Visibility: 10 mile(s):0
Sky conditions: clear
Temperature: 57.9 F (14.4 C)
Dew Point: 51.1 F (10.6 C)
Relative Humidity: 77%
Pressure (altimeter): 30.07 in. Hg (1018 hPa)
ob: KCRG 060453Z AUTO 05007KT 10SM CLR 14/11 A3007 RMK AO2 SLP181 T01440106 401890083
cycle: 5

Station Type Date Time Source
KCRG TAF 2021/03/06 06:22 UTC NOAA

TAF KCRG 060520Z 0606/0706 03006KT P6SM FEW020 BKN100 OVC250
FM061200 03009KT P6SM -SHRA SCT050 OVC070
FM061500 04011G17KT 6SM -SHRA BR OVC030
FM061800 03011KT 5SM -SHRA BR SCT008 OVC015
FM062100 03010KT 4SM BR VCSH OVC008
FM070300 03006KT 5SM BR BKN015

Example: see airport list